Time;durP1;ratioP1;P1;durP2;ratioP2;P2;SDS_P1;SDS_P2;PMS_P1;PMS_P2;Temp;Humidity;BMP_temperature;BMP_pressure;BME280_temperature;BME280_humidity;BME280_pressure;Samples;Min_cycle;Max_cycle;Signal;HPM_P1;HPM_P2
2021/07/25 00:02:18;;;;;;;17.33;10.13;;;;;;;;;;3573688;40;20023;-59
2021/07/25 00:04:43;;;;;;;16.47;10.53;;;;;;;;;;3575131;40;20060;-59
2021/07/25 00:07:08;;;;;;;19.07;10.43;;;;;;;;;;3575764;40;20032;-59
2021/07/25 00:09:33;;;;;;;20.97;11.10;;;;;;;;;;3575751;40;20027;-59
2021/07/25 00:11:59;;;;;;;19.77;11.43;;;;;;;;;;3577830;40;20034;-59
2021/07/25 00:14:24;;;;;;;16.30;10.40;;;;;;;;;;3575706;40;20024;-58
2021/07/25 00:16:49;;;;;;;20.77;11.10;;;;;;;;;;3575806;40;20049;-59
2021/07/25 00:19:15;;;;;;;16.93;10.20;;;;;;;;;;3577840;40;20655;-59
2021/07/25 00:21:40;;;;;;;16.30;10.80;;;;;;;;;;3576302;40;20424;-59
2021/07/25 00:24:05;;;;;;;18.03;10.97;;;;;;;;;;3577180;40;20047;-59
2021/07/25 00:26:37;;;;;;;15.80;10.65;;;;;;;;;;3577065;40;20102;-59
2021/07/25 00:29:02;;;;;;;19.55;10.70;;;;;;;;;;3576406;40;20032;-59
2021/07/25 00:31:29;;;;;;;19.73;11.00;;;;;;;;;;3574804;40;20033;-59
2021/07/25 00:33:54;;;;;;;21.13;10.95;;;;;;;;;;3577530;40;20102;-58
2021/07/25 00:36:19;;;;;;;18.60;10.70;;;;;;;;;;3576323;40;20049;-58
2021/07/25 00:38:45;;;;;;;18.63;11.57;;;;;;;;;;3576553;40;20077;-58
2021/07/25 00:41:10;;;;;;;19.23;10.53;;;;;;;;;;3577005;40;20104;-58
2021/07/25 00:43:35;;;;;;;18.40;10.47;;;;;;;;;;3576409;40;20147;-58
2021/07/25 00:46:00;;;;;;;24.00;11.10;;;;;;;;;;3577730;40;20122;-58
2021/07/25 00:48:26;;;;;;;16.13;10.70;;;;;;;;;;3578659;40;20096;-58
2021/07/25 00:50:51;;;;;;;17.40;11.57;;;;;;;;;;3577414;40;20652;-58
2021/07/25 00:53:16;;;;;;;18.73;10.53;;;;;;;;;;3576333;40;20763;-58
2021/07/25 00:55:41;;;;;;;17.53;10.47;;;;;;;;;;3576299;40;20756;-58
2021/07/25 00:58:07;;;;;;;20.20;11.05;;;;;;;;;;3576707;40;20076;-59
2021/07/25 01:00:32;;;;;;;17.85;11.35;;;;;;;;;;3575192;40;20021;-58
2021/07/25 01:02:57;;;;;;;17.43;11.90;;;;;;;;;;3579408;40;20033;-58
2021/07/25 01:05:22;;;;;;;23.40;11.00;;;;;;;;;;3575696;40;20361;-59
2021/07/25 01:07:48;;;;;;;24.10;11.80;;;;;;;;;;3575943;40;20179;-58
2021/07/25 01:10:13;;;;;;;24.48;11.00;;;;;;;;;;3576292;40;20061;-59
2021/07/25 01:12:38;;;;;;;19.83;11.80;;;;;;;;;;3578541;40;20029;-58
2021/07/25 01:15:04;;;;;;;21.13;10.82;;;;;;;;;;3577231;40;20060;-58
2021/07/25 01:17:29;;;;;;;20.03;11.10;;;;;;;;;;3575022;40;20045;-58
2021/07/25 01:19:54;;;;;;;20.80;10.52;;;;;;;;;;3579496;40;20032;-58
2021/07/25 01:22:19;;;;;;;18.97;11.40;;;;;;;;;;3576304;40;20056;-58
2021/07/25 01:24:45;;;;;;;18.17;10.53;;;;;;;;;;3576173;40;20113;-58
2021/07/25 01:27:10;;;;;;;19.93;11.17;;;;;;;;;;3575259;40;20272;-58
2021/07/25 01:29:35;;;;;;;16.33;10.68;;;;;;;;;;3576042;40;20102;-58
2021/07/25 01:32:00;;;;;;;16.77;10.70;;;;;;;;;;3577568;40;20049;-59
2021/07/25 01:34:26;;;;;;;17.10;11.57;;;;;;;;;;3575983;40;20025;-58
2021/07/25 01:36:51;;;;;;;17.33;10.93;;;;;;;;;;3575778;40;20048;-58
2021/07/25 01:39:16;;;;;;;17.80;11.13;;;;;;;;;;3577163;40;20024;-58
2021/07/25 01:41:41;;;;;;;23.20;11.73;;;;;;;;;;3575610;40;20021;-59
2021/07/25 01:44:07;;;;;;;16.77;11.03;;;;;;;;;;3576068;40;20036;-58
2021/07/25 01:46:32;;;;;;;18.35;12.00;;;;;;;;;;3575699;40;20071;-58
2021/07/25 01:48:57;;;;;;;21.38;11.70;;;;;;;;;;3576316;40;20023;-58
2021/07/25 01:51:23;;;;;;;20.63;11.30;;;;;;;;;;3575449;40;20033;-59
2021/07/25 01:53:48;;;;;;;18.63;10.87;;;;;;;;;;3576855;40;20032;-58
2021/07/25 01:56:13;;;;;;;19.13;11.95;;;;;;;;;;3575077;40;20039;-59
2021/07/25 01:58:39;;;;;;;17.13;11.10;;;;;;;;;;3575567;40;20399;-58
2021/07/25 02:01:04;;;;;;;17.38;11.48;;;;;;;;;;3576150;40;20507;-58
2021/07/25 02:03:29;;;;;;;18.90;11.05;;;;;;;;;;3575524;40;20033;-58
2021/07/25 02:05:55;;;;;;;17.17;11.23;;;;;;;;;;3575454;40;20064;-59
2021/07/25 02:08:20;;;;;;;27.20;12.47;;;;;;;;;;3575565;40;20274;-58
2021/07/25 02:10:45;;;;;;;15.87;10.63;;;;;;;;;;3576369;40;20092;-58
2021/07/25 02:13:10;;;;;;;16.30;11.43;;;;;;;;;;3578236;40;20883;-60
2021/07/25 02:15:35;;;;;;;17.87;11.27;;;;;;;;;;3573486;40;20065;-58
2021/07/25 02:18:01;;;;;;;22.73;13.70;;;;;;;;;;3577682;40;20040;-58
2021/07/25 02:20:26;;;;;;;17.77;11.67;;;;;;;;;;3577198;40;20426;-59
2021/07/25 02:22:51;;;;;;;17.83;11.43;;;;;;;;;;3578368;40;20424;-58
2021/07/25 02:25:16;;;;;;;20.43;12.00;;;;;;;;;;3579496;40;20729;-58
2021/07/25 02:27:41;;;;;;;21.07;12.03;;;;;;;;;;3578222;40;20488;-58
2021/07/25 02:30:07;;;;;;;19.47;12.00;;;;;;;;;;3577144;40;20669;-59
2021/07/25 02:32:32;;;;;;;17.63;11.47;;;;;;;;;;3577435;40;20649;-58
2021/07/25 02:34:57;;;;;;;33.97;12.53;;;;;;;;;;3578631;40;20259;-58
2021/07/25 02:37:22;;;;;;;19.13;11.37;;;;;;;;;;3577615;40;21084;-58
2021/07/25 02:39:48;;;;;;;17.13;11.23;;;;;;;;;;3575799;40;20515;-58
2021/07/25 02:42:13;;;;;;;20.33;11.67;;;;;;;;;;3577646;40;20512;-58
2021/07/25 02:44:38;;;;;;;31.70;11.83;;;;;;;;;;3573890;40;20069;-58
2021/07/25 02:47:03;;;;;;;18.43;11.93;;;;;;;;;;3579297;40;20773;-58
2021/07/25 02:49:28;;;;;;;20.30;12.10;;;;;;;;;;3578010;40;20271;-59
2021/07/25 02:51:55;;;;;;;23.13;11.47;;;;;;;;;;3575387;40;20020;-58
2021/07/25 02:54:20;;;;;;;16.27;10.73;;;;;;;;;;3579881;40;20024;-58
2021/07/25 02:56:46;;;;;;;24.60;11.87;;;;;;;;;;3575892;40;20380;-59
2021/07/25 02:59:11;;;;;;;19.27;11.37;;;;;;;;;;3580451;40;20044;-58
2021/07/25 03:01:36;;;;;;;17.70;11.00;;;;;;;;;;3576724;40;20122;-59
2021/07/25 03:04:01;;;;;;;18.50;11.40;;;;;;;;;;3576252;40;20497;-60
2021/07/25 03:06:27;;;;;;;19.10;11.53;;;;;;;;;;3576821;40;20383;-59
2021/07/25 03:08:52;;;;;;;18.70;12.47;;;;;;;;;;3577738;40;20152;-59
2021/07/25 03:11:19;;;;;;;16.60;11.40;;;;;;;;;;3576787;40;20037;-59
2021/07/25 03:13:44;;;;;;;22.45;12.00;;;;;;;;;;3579580;40;20064;-59
2021/07/25 03:16:10;;;;;;;21.13;11.60;;;;;;;;;;3577146;40;20121;-59
2021/07/25 03:18:35;;;;;;;16.97;11.53;;;;;;;;;;3577399;40;20102;-59
2021/07/25 03:21:00;;;;;;;25.77;11.45;;;;;;;;;;3579025;40;20267;-59
2021/07/25 03:23:25;;;;;;;18.27;11.67;;;;;;;;;;3578497;40;20037;-59
2021/07/25 03:25:51;;;;;;;16.30;11.43;;;;;;;;;;3580314;40;20036;-59
2021/07/25 03:28:16;;;;;;;20.70;11.47;;;;;;;;;;3578435;40;20043;-59
2021/07/25 03:30:41;;;;;;;17.38;11.38;;;;;;;;;;3576895;40;20029;-59
2021/07/25 03:33:06;;;;;;;17.73;10.90;;;;;;;;;;3576761;40;20398;-59
2021/07/25 03:35:33;;;;;;;16.42;11.38;;;;;;;;;;3575382;40;20032;-59
2021/07/25 03:37:58;;;;;;;19.88;11.82;;;;;;;;;;3577508;40;20350;-60
2021/07/25 03:40:29;;;;;;;19.38;11.77;;;;;;;;;;3576830;40;20052;-59
2021/07/25 03:42:54;;;;;;;18.27;11.98;;;;;;;;;;3577447;40;20492;-59
2021/07/25 03:45:20;;;;;;;22.20;11.60;;;;;;;;;;3576898;40;20065;-60
2021/07/25 03:47:45;;;;;;;15.70;10.83;;;;;;;;;;3575323;40;20041;-59
2021/07/25 03:50:10;;;;;;;17.43;10.77;;;;;;;;;;3579930;40;20029;-59
2021/07/25 03:52:35;;;;;;;19.67;11.67;;;;;;;;;;3579118;40;20033;-59
2021/07/25 03:55:00;;;;;;;19.07;10.97;;;;;;;;;;3578626;40;20024;-59
2021/07/25 03:57:26;;;;;;;19.17;11.27;;;;;;;;;;3577772;40;20672;-59
2021/07/25 03:59:51;;;;;;;16.88;10.80;;;;;;;;;;3575768;40;20033;-59
2021/07/25 04:02:16;;;;;;;18.27;11.20;;;;;;;;;;3576492;40;20677;-59
2021/07/25 04:04:41;;;;;;;17.07;11.30;;;;;;;;;;3577499;40;20033;-58
2021/07/25 04:07:07;;;;;;;17.20;11.67;;;;;;;;;;3578527;40;20021;-58
2021/07/25 04:09:32;;;;;;;18.40;11.57;;;;;;;;;;3576752;40;20029;-58
2021/07/25 04:11:57;;;;;;;23.08;11.27;;;;;;;;;;3579613;40;20029;-58
2021/07/25 04:14:22;;;;;;;19.37;11.77;;;;;;;;;;3580168;40;20087;-58
2021/07/25 04:16:48;;;;;;;23.93;12.33;;;;;;;;;;3577488;40;20040;-58
2021/07/25 04:19:13;;;;;;;17.67;10.98;;;;;;;;;;3577089;40;20414;-58
2021/07/25 04:21:38;;;;;;;17.13;11.03;;;;;;;;;;3577633;40;20134;-58
2021/07/25 04:24:04;;;;;;;24.38;12.13;;;;;;;;;;3579279;40;20037;-58
2021/07/25 04:26:29;;;;;;;18.50;10.77;;;;;;;;;;3579503;40;20032;-58
2021/07/25 04:28:54;;;;;;;18.33;10.73;;;;;;;;;;3580091;40;20465;-58
2021/07/25 04:31:19;;;;;;;28.87;11.37;;;;;;;;;;3576637;40;20032;-58
2021/07/25 04:33:45;;;;;;;16.97;11.00;;;;;;;;;;3578683;40;20326;-58
2021/07/25 04:36:13;;;;;;;18.77;10.77;;;;;;;;;;3578747;40;20025;-64
2021/07/25 04:38:38;;;;;;;21.45;11.50;;;;;;;;;;3579118;40;20093;-64
2021/07/25 04:41:03;;;;;;;17.93;11.13;;;;;;;;;;3577135;40;20025;-65
2021/07/25 04:43:29;;;;;;;18.73;11.33;;;;;;;;;;3576246;40;20827;-65
2021/07/25 04:45:54;;;;;;;18.25;11.45;;;;;;;;;;3579371;40;20036;-65
2021/07/25 04:48:19;;;;;;;19.23;11.33;;;;;;;;;;3578414;40;20440;-64
2021/07/25 04:50:44;;;;;;;18.48;11.82;;;;;;;;;;3575269;40;20501;-64
2021/07/25 04:53:10;;;;;;;18.27;11.37;;;;;;;;;;3577912;40;20459;-65
2021/07/25 04:55:35;;;;;;;19.67;11.27;;;;;;;;;;3578606;40;20036;-65
2021/07/25 04:58:00;;;;;;;23.17;11.63;;;;;;;;;;3576868;40;20021;-65
2021/07/25 05:00:26;;;;;;;21.30;12.23;;;;;;;;;;3575639;40;20028;-65
2021/07/25 05:02:57;;;;;;;24.00;11.57;;;;;;;;;;3576310;40;20024;-65
2021/07/25 05:05:22;;;;;;;19.27;12.15;;;;;;;;;;3577228;40;20248;-65
2021/07/25 05:07:47;;;;;;;20.33;12.30;;;;;;;;;;3579463;40;20060;-65
2021/07/25 05:10:13;;;;;;;18.83;11.93;;;;;;;;;;3576065;40;20664;-65
2021/07/25 05:12:38;;;;;;;21.20;12.33;;;;;;;;;;3575745;40;20041;-65
2021/07/25 05:15:03;;;;;;;22.77;12.57;;;;;;;;;;3578592;40;20024;-64
2021/07/25 05:17:28;;;;;;;22.98;12.23;;;;;;;;;;3576530;40;20037;-65
2021/07/25 05:19:54;;;;;;;22.42;12.05;;;;;;;;;;3578544;40;20036;-65
2021/07/25 05:22:19;;;;;;;21.13;12.13;;;;;;;;;;3579887;40;20051;-65
2021/07/25 05:24:44;;;;;;;24.50;12.43;;;;;;;;;;3576783;40;20280;-64
2021/07/25 05:27:09;;;;;;;18.50;11.77;;;;;;;;;;3577748;40;20422;-65
2021/07/25 05:29:35;;;;;;;20.03;12.10;;;;;;;;;;3569854;40;20133;-64
2021/07/25 05:32:00;;;;;;;21.42;12.88;;;;;;;;;;3578991;40;20033;-65
2021/07/25 05:34:25;;;;;;;23.43;13.93;;;;;;;;;;3576525;40;20029;-65
2021/07/25 05:36:50;;;;;;;18.53;12.93;;;;;;;;;;3579848;40;20031;-65
2021/07/25 05:39:15;;;;;;;21.00;12.17;;;;;;;;;;3577761;40;20029;-65
2021/07/25 05:41:41;;;;;;;20.00;12.57;;;;;;;;;;3578795;40;20033;-65
2021/07/25 05:44:06;;;;;;;23.83;12.13;;;;;;;;;;3581344;40;20246;-65
2021/07/25 05:46:31;;;;;;;16.90;11.63;;;;;;;;;;3576742;40;20260;-64
2021/07/25 05:48:56;;;;;;;24.13;12.38;;;;;;;;;;3579731;40;20044;-64
2021/07/25 05:51:22;;;;;;;22.37;12.87;;;;;;;;;;3577011;40;20291;-65
2021/07/25 05:53:47;;;;;;;19.10;12.70;;;;;;;;;;3578883;40;20040;-64
2021/07/25 05:56:12;;;;;;;22.70;12.70;;;;;;;;;;3576810;40;20052;-58
2021/07/25 05:58:37;;;;;;;29.07;12.03;;;;;;;;;;3579793;40;20029;-60
2021/07/25 06:01:03;;;;;;;23.23;12.47;;;;;;;;;;3579791;40;20264;-59
2021/07/25 06:03:29;;;;;;;22.10;12.77;;;;;;;;;;3578506;40;20277;-59
2021/07/25 06:05:54;;;;;;;23.55;12.40;;;;;;;;;;3579372;40;20068;-59
2021/07/25 06:08:19;;;;;;;22.43;13.73;;;;;;;;;;3577723;40;20036;-59
2021/07/25 06:10:45;;;;;;;18.77;12.17;;;;;;;;;;3576852;40;20122;-59
2021/07/25 06:13:10;;;;;;;30.17;13.50;;;;;;;;;;3578520;40;20024;-58
2021/07/25 06:15:35;;;;;;;18.03;12.50;;;;;;;;;;3575582;40;20029;-60
2021/07/25 06:18:02;;;;;;;22.87;13.07;;;;;;;;;;3578491;40;20043;-60
2021/07/25 06:20:28;;;;;;;21.17;12.98;;;;;;;;;;3578491;40;20028;-58
2021/07/25 06:22:53;;;;;;;19.75;12.23;;;;;;;;;;3578548;40;20081;-58
2021/07/25 06:25:20;;;;;;;18.52;12.32;;;;;;;;;;3576888;40;20036;-59
2021/07/25 06:27:46;;;;;;;21.42;12.20;;;;;;;;;;3578581;40;20025;-58
2021/07/25 06:30:11;;;;;;;27.25;12.65;;;;;;;;;;3578591;40;20310;-58
2021/07/25 06:32:36;;;;;;;20.57;12.43;;;;;;;;;;3578680;40;20386;-59
2021/07/25 06:35:02;;;;;;;22.13;12.90;;;;;;;;;;3579943;40;20110;-59
2021/07/25 06:37:27;;;;;;;24.37;13.13;;;;;;;;;;3580609;40;20020;-59
2021/07/25 06:39:52;;;;;;;21.47;12.60;;;;;;;;;;3577844;40;20271;-65
2021/07/25 06:42:18;;;;;;;19.47;12.67;;;;;;;;;;3578821;40;20025;-65
2021/07/25 06:44:43;;;;;;;17.20;12.25;;;;;;;;;;3578788;40;20037;-65
2021/07/25 06:47:08;;;;;;;17.53;12.17;;;;;;;;;;3579031;40;20051;-59
2021/07/25 06:49:33;;;;;;;24.13;12.30;;;;;;;;;;3577233;40;20029;-59
2021/07/25 06:51:58;;;;;;;20.50;12.60;;;;;;;;;;3577662;40;20052;-59
2021/07/25 06:54:24;;;;;;;19.83;12.60;;;;;;;;;;3576951;40;20291;-65
2021/07/25 06:56:49;;;;;;;22.50;12.38;;;;;;;;;;3577856;40;20020;-65
2021/07/25 06:59:14;;;;;;;22.47;12.77;;;;;;;;;;3579071;40;20040;-65
2021/07/25 07:01:39;;;;;;;26.43;12.53;;;;;;;;;;3577171;40;20065;-65
2021/07/25 07:04:04;;;;;;;20.47;12.47;;;;;;;;;;3578103;40;20037;-65
2021/07/25 07:06:29;;;;;;;21.53;11.80;;;;;;;;;;3576700;40;20495;-66
2021/07/25 07:08:55;;;;;;;25.07;13.27;;;;;;;;;;3576924;40;20403;-65
2021/07/25 07:11:20;;;;;;;20.48;12.90;;;;;;;;;;3575585;40;20028;-65
2021/07/25 07:13:45;;;;;;;26.67;13.13;;;;;;;;;;3576875;40;20021;-66
2021/07/25 07:16:11;;;;;;;22.05;13.10;;;;;;;;;;3576651;40;20033;-66
2021/07/25 07:18:36;;;;;;;19.03;12.00;;;;;;;;;;3576231;40;21010;-59
2021/07/25 07:21:01;;;;;;;22.08;12.63;;;;;;;;;;3576942;40;20077;-59
2021/07/25 07:23:26;;;;;;;29.27;13.03;;;;;;;;;;3580362;40;20052;-59
2021/07/25 07:25:51;;;;;;;18.60;11.90;;;;;;;;;;3580034;40;20024;-59
2021/07/25 07:28:17;;;;;;;24.27;12.83;;;;;;;;;;3577340;40;20856;-59
2021/07/25 07:30:42;;;;;;;22.53;12.77;;;;;;;;;;3579793;40;20774;-59
2021/07/25 07:33:07;;;;;;;20.23;11.67;;;;;;;;;;3579771;40;20417;-59
2021/07/25 07:35:32;;;;;;;17.03;11.87;;;;;;;;;;3576641;40;20085;-59
2021/07/25 07:37:57;;;;;;;26.30;13.17;;;;;;;;;;3578234;40;20456;-59
2021/07/25 07:40:23;;;;;;;21.47;13.10;;;;;;;;;;3579526;40;20051;-59
2021/07/25 07:42:48;;;;;;;28.98;12.88;;;;;;;;;;3580059;40;20018;-60
2021/07/25 07:45:15;;;;;;;22.07;12.53;;;;;;;;;;3578544;40;20037;-59
2021/07/25 07:47:40;;;;;;;26.17;15.85;;;;;;;;;;3577892;40;20487;-60
2021/07/25 07:50:05;;;;;;;23.27;14.03;;;;;;;;;;3580902;40;20032;-60
2021/07/25 07:52:30;;;;;;;19.37;13.07;;;;;;;;;;3578780;40;20032;-60
2021/07/25 07:54:55;;;;;;;20.53;13.27;;;;;;;;;;3575608;40;20069;-60
2021/07/25 07:57:21;;;;;;;20.50;12.83;;;;;;;;;;3579813;40;20033;-60
2021/07/25 07:59:46;;;;;;;19.33;12.60;;;;;;;;;;3581717;40;20025;-60
2021/07/25 08:02:11;;;;;;;22.60;12.23;;;;;;;;;;3580608;40;20040;-60
2021/07/25 08:04:36;;;;;;;21.13;12.30;;;;;;;;;;3580396;40;20024;-60
2021/07/25 08:07:02;;;;;;;30.73;18.87;;;;;;;;;;3579860;40;20416;-60
2021/07/25 08:09:27;;;;;;;21.33;12.83;;;;;;;;;;3580188;40;20606;-61
2021/07/25 08:11:52;;;;;;;18.47;12.90;;;;;;;;;;3581025;40;20045;-60
2021/07/25 08:14:19;;;;;;;19.48;13.15;;;;;;;;;;3579398;40;20025;-60
2021/07/25 08:16:44;;;;;;;20.83;13.05;;;;;;;;;;3581190;40;20028;-60
2021/07/25 08:19:09;;;;;;;21.27;12.83;;;;;;;;;;3576882;40;20437;-60
2021/07/25 08:21:34;;;;;;;24.23;12.50;;;;;;;;;;3580392;40;20059;-59
2021/07/25 08:24:00;;;;;;;24.33;13.10;;;;;;;;;;3577246;40;20037;-59
2021/07/25 08:26:25;;;;;;;25.50;12.47;;;;;;;;;;3576099;40;20410;-59
2021/07/25 08:28:50;;;;;;;22.90;14.73;;;;;;;;;;3579823;40;20028;-59
2021/07/25 08:31:15;;;;;;;20.80;12.53;;;;;;;;;;3577438;40;20020;-59
2021/07/25 08:33:40;;;;;;;23.33;14.27;;;;;;;;;;3580815;40;20037;-58
2021/07/25 08:36:06;;;;;;;21.17;12.17;;;;;;;;;;3577270;40;20647;-59
2021/07/25 08:38:31;;;;;;;23.23;11.90;;;;;;;;;;3578439;40;20024;-59
2021/07/25 08:40:56;;;;;;;26.87;17.37;;;;;;;;;;3578867;40;20032;-59
2021/07/25 08:43:21;;;;;;;28.37;15.43;;;;;;;;;;3577537;40;20044;-59
2021/07/25 08:45:47;;;;;;;20.97;13.93;;;;;;;;;;3578248;40;20458;-59
2021/07/25 08:48:12;;;;;;;19.50;12.30;;;;;;;;;;3578715;40;20084;-61
2021/07/25 08:50:37;;;;;;;18.17;11.60;;;;;;;;;;3577344;40;20025;-66
2021/07/25 08:53:02;;;;;;;23.43;11.50;;;;;;;;;;3579440;40;20083;-66
2021/07/25 08:55:28;;;;;;;19.33;12.35;;;;;;;;;;3576432;40;20087;-66
2021/07/25 08:57:53;;;;;;;19.37;11.17;;;;;;;;;;3579545;40;20727;-66
2021/07/25 09:00:18;;;;;;;29.23;13.33;;;;;;;;;;3576000;40;20037;-66
2021/07/25 09:02:43;;;;;;;19.87;11.97;;;;;;;;;;3581677;40;20043;-66
2021/07/25 09:05:10;;;;;;;15.57;11.47;;;;;;;;;;3577921;40;20459;-66
2021/07/25 09:07:35;;;;;;;17.08;11.73;;;;;;;;;;3577417;40;20028;-66
2021/07/25 09:10:01;;;;;;;20.97;11.63;;;;;;;;;;3577036;40;20047;-67
2021/07/25 09:12:26;;;;;;;15.43;10.30;;;;;;;;;;3579784;40;20036;-66
2021/07/25 09:14:51;;;;;;;20.30;11.00;;;;;;;;;;3576424;40;20384;-66
2021/07/25 09:17:17;;;;;;;16.73;11.37;;;;;;;;;;3577547;40;20044;-67
2021/07/25 09:19:42;;;;;;;20.10;10.68;;;;;;;;;;3576313;40;20484;-66
2021/07/25 09:22:07;;;;;;;22.40;11.23;;;;;;;;;;3578379;40;20036;-66
2021/07/25 09:24:33;;;;;;;17.17;11.03;;;;;;;;;;3577910;40;20415;-66
2021/07/25 09:26:58;;;;;;;15.38;10.13;;;;;;;;;;3577641;40;20029;-67
2021/07/25 09:29:23;;;;;;;14.65;9.82;;;;;;;;;;3579885;40;20056;-67
2021/07/25 09:31:48;;;;;;;14.30;9.60;;;;;;;;;;3577300;40;20402;-66
2021/07/25 09:34:14;;;;;;;18.10;10.40;;;;;;;;;;3575538;40;20013;-66
2021/07/25 09:36:39;;;;;;;19.57;10.40;;;;;;;;;;3577027;40;20029;-66
2021/07/25 09:39:04;;;;;;;21.63;12.23;;;;;;;;;;3577901;40;20085;-66
2021/07/25 09:41:30;;;;;;;16.85;10.82;;;;;;;;;;3576207;40;20837;-66
2021/07/25 09:43:55;;;;;;;17.48;11.15;;;;;;;;;;3576633;40;20028;-66
2021/07/25 09:46:20;;;;;;;15.73;10.93;;;;;;;;;;3576659;40;20033;-67
2021/07/25 09:48:45;;;;;;;22.97;12.60;;;;;;;;;;3575931;40;20818;-66
2021/07/25 09:51:11;;;;;;;46.63;27.63;;;;;;;;;;3578913;40;20036;-67
2021/07/25 09:53:36;;;;;;;19.70;11.77;;;;;;;;;;3576258;40;20688;-67
2021/07/25 09:56:01;;;;;;;18.73;10.65;;;;;;;;;;3575354;40;20025;-67
2021/07/25 09:58:27;;;;;;;18.37;10.97;;;;;;;;;;3576013;40;20361;-67
2021/07/25 10:00:52;;;;;;;16.43;9.90;;;;;;;;;;3576580;40;20710;-67
2021/07/25 10:03:17;;;;;;;18.00;10.87;;;;;;;;;;3577160;40;20499;-66
2021/07/25 10:05:42;;;;;;;23.70;14.30;;;;;;;;;;3578220;40;20025;-67
2021/07/25 10:08:08;;;;;;;20.23;11.93;;;;;;;;;;3579551;40;20278;-66
2021/07/25 10:10:33;;;;;;;15.33;10.87;;;;;;;;;;3575002;40;20338;-66
2021/07/25 10:12:58;;;;;;;29.67;16.53;;;;;;;;;;3580436;40;20776;-67
2021/07/25 10:15:23;;;;;;;16.50;10.57;;;;;;;;;;3577775;40;20127;-66
2021/07/25 10:17:48;;;;;;;30.10;15.37;;;;;;;;;;3576867;40;20028;-67
2021/07/25 10:20:17;;;;;;;18.30;11.63;;;;;;;;;;3575681;40;20510;-67
2021/07/25 10:22:42;;;;;;;14.77;9.75;;;;;;;;;;3576172;40;20081;-66
2021/07/25 10:25:07;;;;;;;15.87;9.43;;;;;;;;;;3577328;40;20131;-66
2021/07/25 10:27:33;;;;;;;18.20;9.97;;;;;;;;;;3578253;40;20302;-67
2021/07/25 10:29:58;;;;;;;18.50;10.23;;;;;;;;;;3575072;40;20025;-66
2021/07/25 10:32:23;;;;;;;20.37;11.57;;;;;;;;;;3579786;40;20098;-67
2021/07/25 10:34:48;;;;;;;24.17;13.73;;;;;;;;;;3575893;40;20440;-66
2021/07/25 10:37:14;;;;;;;17.60;10.57;;;;;;;;;;3578128;40;20025;-66
2021/07/25 10:39:40;;;;;;;16.05;10.48;;;;;;;;;;3579555;40;20149;-67
2021/07/25 10:42:05;;;;;;;17.17;10.73;;;;;;;;;;3576022;40;20037;-66
2021/07/25 10:44:30;;;;;;;16.20;10.07;;;;;;;;;;3579426;40;20125;-67
2021/07/25 10:46:56;;;;;;;15.33;10.50;;;;;;;;;;3575343;40;20032;-67
2021/07/25 10:49:21;;;;;;;17.70;10.17;;;;;;;;;;3577826;40;20268;-67
2021/07/25 10:51:46;;;;;;;15.27;9.50;;;;;;;;;;3576574;40;20028;-67
2021/07/25 10:54:11;;;;;;;15.03;10.27;;;;;;;;;;3574060;40;20048;-68
2021/07/25 10:56:37;;;;;;;14.77;10.33;;;;;;;;;;3575320;40;20692;-67
2021/07/25 10:59:02;;;;;;;19.57;9.67;;;;;;;;;;3577228;40;21028;-67
2021/07/25 11:01:27;;;;;;;16.37;10.27;;;;;;;;;;3577927;40;20042;-63
2021/07/25 11:03:52;;;;;;;17.63;10.33;;;;;;;;;;3578388;40;20613;-62
2021/07/25 11:06:18;;;;;;;19.80;10.87;;;;;;;;;;3576818;40;20041;-63
2021/07/25 11:08:43;;;;;;;14.20;9.80;;;;;;;;;;3578213;40;20303;-62
2021/07/25 11:11:09;;;;;;;15.05;9.80;;;;;;;;;;3577300;40;20258;-67
2021/07/25 11:13:34;;;;;;;14.60;9.73;;;;;;;;;;3566628;40;20024;-67
2021/07/25 11:15:59;;;;;;;14.33;10.20;;;;;;;;;;3576925;40;20033;-62
2021/07/25 11:18:24;;;;;;;13.93;10.10;;;;;;;;;;3578799;40;20283;-62
2021/07/25 11:20:54;;;;;;;15.00;10.80;;;;;;;;;;3578443;40;20719;-61
2021/07/25 11:23:19;;;;;;;15.90;9.35;;;;;;;;;;3576734;40;20029;-62
2021/07/25 11:25:44;;;;;;;18.47;10.33;;;;;;;;;;3577020;40;20134;-62
2021/07/25 11:28:09;;;;;;;19.30;10.23;;;;;;;;;;3578574;40;20033;-65
2021/07/25 11:30:35;;;;;;;13.07;9.73;;;;;;;;;;3577503;40;20036;-62
2021/07/25 11:33:00;;;;;;;16.63;9.90;;;;;;;;;;3578549;40;20294;-61
2021/07/25 11:35:25;;;;;;;23.80;11.67;;;;;;;;;;3579164;40;20291;-62
2021/07/25 11:37:50;;;;;;;14.87;9.50;;;;;;;;;;3579613;40;20029;-62
2021/07/25 11:40:16;;;;;;;18.70;9.97;;;;;;;;;;3576573;40;20699;-62
2021/07/25 11:42:42;;;;;;;13.00;9.23;;;;;;;;;;3578038;40;20029;-61
2021/07/25 11:45:08;;;;;;;16.55;9.18;;;;;;;;;;3568961;40;20045;-62
2021/07/25 11:47:33;;;;;;;12.70;9.43;;;;;;;;;;3579444;40;20386;-62
2021/07/25 11:49:58;;;;;;;18.15;12.23;;;;;;;;;;3578166;40;20032;-62
2021/07/25 11:52:30;;;;;;;20.30;13.50;;;;;;;;;;3576443;40;20350;-62
2021/07/25 11:54:55;;;;;;;12.63;8.90;;;;;;;;;;3577472;40;20021;-61
2021/07/25 11:57:20;;;;;;;15.40;9.63;;;;;;;;;;3576350;40;20028;-62
2021/07/25 11:59:45;;;;;;;12.87;9.30;;;;;;;;;;3576317;40;20020;-63
2021/07/25 12:02:11;;;;;;;12.60;9.13;;;;;;;;;;3574960;40;20060;-62
2021/07/25 12:04:36;;;;;;;13.77;9.70;;;;;;;;;;3579275;40;20043;-62
2021/07/25 12:07:01;;;;;;;12.33;9.20;;;;;;;;;;3577332;40;20036;-62
2021/07/25 12:09:26;;;;;;;17.80;9.93;;;;;;;;;;3575938;40;20029;-61
2021/07/25 12:11:52;;;;;;;16.27;9.50;;;;;;;;;;3576673;40;20064;-62
2021/07/25 12:14:17;;;;;;;17.20;9.50;;;;;;;;;;3577812;40;20138;-62
2021/07/25 12:16:42;;;;;;;17.13;11.07;;;;;;;;;;3579687;40;20021;-62
2021/07/25 12:19:07;;;;;;;14.30;10.07;;;;;;;;;;3579475;40;20409;-62
2021/07/25 12:21:32;;;;;;;16.87;10.53;;;;;;;;;;3580404;40;20434;-62
2021/07/25 12:23:58;;;;;;;12.73;9.63;;;;;;;;;;3576869;40;20433;-63
2021/07/25 12:26:23;;;;;;;13.43;9.80;;;;;;;;;;3576816;40;20049;-63
2021/07/25 12:28:48;;;;;;;13.70;9.30;;;;;;;;;;3577858;40;20753;-62
2021/07/25 12:31:14;;;;;;;18.33;10.63;;;;;;;;;;3576957;40;20078;-63
2021/07/25 12:33:39;;;;;;;18.05;10.52;;;;;;;;;;3579105;40;20092;-63
2021/07/25 12:36:04;;;;;;;14.40;10.40;;;;;;;;;;3579202;40;20054;-63
2021/07/25 12:38:30;;;;;;;17.67;11.43;;;;;;;;;;3577818;40;20052;-63
2021/07/25 12:40:55;;;;;;;22.43;13.70;;;;;;;;;;3578685;40;20029;-62
2021/07/25 12:43:20;;;;;;;15.07;11.03;;;;;;;;;;3578205;40;20295;-62
2021/07/25 12:45:45;;;;;;;65.07;37.23;;;;;;;;;;3577340;40;20417;-64
2021/07/25 12:48:10;;;;;;;17.97;12.03;;;;;;;;;;3576622;40;20037;-63
2021/07/25 12:50:36;;;;;;;14.77;10.00;;;;;;;;;;3577185;40;20033;-62
2021/07/25 12:53:01;;;;;;;20.20;10.10;;;;;;;;;;3580199;40;20040;-62
2021/07/25 12:55:26;;;;;;;16.17;10.60;;;;;;;;;;3576436;40;20040;-62
2021/07/25 12:57:51;;;;;;;15.00;10.60;;;;;;;;;;3578828;40;20534;-62
2021/07/25 13:00:20;;;;;;;22.33;10.67;;;;;;;;;;3575965;40;20032;-63
2021/07/25 13:05:29;;;;;;;16.25;9.82;;;;;;;;;;3577420;40;20038;-62
2021/07/25 13:07:54;;;;;;;19.63;10.57;;;;;;;;;;3580015;40;20029;-63
2021/07/25 13:10:20;;;;;;;19.43;10.10;;;;;;;;;;3576956;40;20663;-63
2021/07/25 13:12:45;;;;;;;16.37;10.63;;;;;;;;;;3577835;40;20086;-62
2021/07/25 13:15:10;;;;;;;14.20;9.47;;;;;;;;;;3577667;40;20033;-63
2021/07/25 13:17:35;;;;;;;15.10;10.07;;;;;;;;;;3576205;40;20033;-62
2021/07/25 13:20:00;;;;;;;12.50;10.10;;;;;;;;;;3579471;40;20039;-63
2021/07/25 13:22:25;;;;;;;18.13;9.67;;;;;;;;;;3576096;40;20753;-63
2021/07/25 13:24:51;;;;;;;16.33;10.00;;;;;;;;;;3578579;40;20777;-63
2021/07/25 13:27:16;;;;;;;12.85;9.00;;;;;;;;;;3575612;40;20104;-63
2021/07/25 13:29:42;;;;;;;15.20;9.70;;;;;;;;;;3576040;40;20041;-61
2021/07/25 13:32:07;;;;;;;31.80;19.23;;;;;;;;;;3575606;40;20126;-61
2021/07/25 13:34:32;;;;;;;16.63;11.50;;;;;;;;;;3576309;40;20429;-60
2021/07/25 13:36:57;;;;;;;13.00;9.67;;;;;;;;;;3575028;40;20097;-61
2021/07/25 13:39:26;;;;;;;14.33;9.07;;;;;;;;;;3575962;40;20031;-61
2021/07/25 13:41:52;;;;;;;17.25;10.65;;;;;;;;;;3576616;40;20028;-60
2021/07/25 13:44:17;;;;;;;23.33;9.55;;;;;;;;;;3578043;40;20029;-61
2021/07/25 13:46:54;;;;;;;12.80;9.20;;;;;;;;;;3577209;40;20024;-61
2021/07/25 13:49:19;;;;;;;16.40;9.25;;;;;;;;;;3577209;40;20033;-60
2021/07/25 13:51:45;;;;;;;15.27;9.13;;;;;;;;;;3579821;40;20044;-61
2021/07/25 13:54:10;;;;;;;13.55;8.85;;;;;;;;;;3581303;40;20058;-60
2021/07/25 13:56:35;;;;;;;10.85;8.20;;;;;;;;;;3579367;40;20055;-61
2021/07/25 13:59:01;;;;;;;15.93;9.83;;;;;;;;;;3577797;40;20066;-59
2021/07/25 14:01:26;;;;;;;14.33;10.57;;;;;;;;;;3577221;40;20133;-60
2021/07/25 14:03:51;;;;;;;21.07;14.23;;;;;;;;;;3577037;40;20021;-60
2021/07/25 14:06:16;;;;;;;15.97;8.97;;;;;;;;;;3579063;40;20055;-60
2021/07/25 14:08:42;;;;;;;12.80;9.70;;;;;;;;;;3576805;40;20037;-61
2021/07/25 14:11:07;;;;;;;13.67;8.70;;;;;;;;;;3577854;40;20471;-60